createdAt,value
2019-03-11T00:02:14.973Z,16.87
2019-03-11T00:04:43.392Z,9.93
2019-03-11T00:07:11.825Z,7.10
2019-03-11T00:09:40.257Z,8.13
2019-03-11T00:12:08.733Z,11.97
2019-03-11T00:14:37.134Z,16.93
2019-03-11T00:17:05.592Z,11.30
2019-03-11T00:19:34.013Z,9.58
2019-03-11T00:22:02.434Z,19.20
2019-03-11T00:24:30.864Z,12.80
2019-03-11T00:26:59.305Z,9.90
2019-03-11T00:29:27.725Z,10.98
2019-03-11T00:31:56.137Z,14.43
2019-03-11T00:34:24.580Z,6.72
2019-03-11T00:36:53.099Z,12.80
2019-03-11T00:39:21.513Z,11.08
2019-03-11T00:41:49.922Z,15.55
2019-03-11T00:44:18.358Z,8.83
2019-03-11T00:46:46.790Z,11.08
2019-03-11T00:49:15.242Z,14.85
2019-03-11T00:51:43.675Z,12.40
2019-03-11T00:54:12.129Z,13.00
2019-03-11T00:56:40.533Z,14.53
2019-03-11T00:59:08.957Z,13.15
2019-03-11T01:01:37.373Z,14.70
2019-03-11T01:04:05.818Z,10.28
2019-03-11T01:06:34.312Z,11.50
2019-03-11T01:09:02.929Z,10.15
2019-03-11T01:11:31.344Z,13.10
2019-03-11T01:13:59.793Z,13.18
2019-03-11T01:16:28.204Z,16.07
2019-03-11T01:18:56.643Z,18.17
2019-03-11T01:21:25.057Z,12.78
2019-03-11T01:23:53.490Z,13.10
2019-03-11T01:26:21.905Z,14.90
2019-03-11T01:28:50.344Z,18.32
2019-03-11T01:31:18.761Z,9.98
2019-03-11T01:33:47.190Z,15.05
2019-03-11T01:36:15.633Z,14.95
2019-03-11T01:38:44.073Z,12.20
2019-03-11T01:41:12.554Z,12.90
2019-03-11T01:43:40.993Z,12.03
2019-03-11T01:46:09.430Z,11.88
2019-03-11T01:48:37.843Z,9.95
2019-03-11T01:51:06.304Z,17.87
2019-03-11T01:53:34.701Z,13.50
2019-03-11T01:56:03.137Z,9.88
2019-03-11T01:58:31.546Z,12.50
2019-03-11T02:00:59.985Z,17.07
2019-03-11T02:03:28.397Z,11.03
2019-03-11T02:05:56.861Z,14.85
2019-03-11T02:08:25.321Z,14.50
2019-03-11T02:10:53.774Z,16.52
2019-03-11T02:13:22.192Z,15.25
2019-03-11T02:15:50.641Z,18.32
2019-03-11T02:18:19.057Z,14.43
2019-03-11T02:20:47.531Z,16.35
2019-03-11T02:23:16.069Z,16.60
2019-03-11T02:25:44.505Z,15.10
2019-03-11T02:28:12.997Z,12.82
2019-03-11T02:30:41.422Z,13.28
2019-03-11T02:33:09.839Z,13.40
2019-03-11T02:35:38.284Z,17.85
2019-03-11T02:38:06.785Z,11.22
2019-03-11T02:40:35.204Z,13.05
2019-03-11T02:43:03.736Z,12.03
2019-03-11T02:45:32.211Z,16.07
2019-03-11T02:48:00.641Z,18.12
2019-03-11T02:50:29.047Z,11.95
2019-03-11T02:52:57.548Z,9.03
2019-03-11T02:55:25.953Z,18.45
2019-03-11T02:57:54.385Z,10.08
2019-03-11T03:00:22.893Z,14.68
2019-03-11T03:03:08.015Z,12.85
2019-03-11T03:05:50.195Z,15.05
2019-03-11T03:08:18.624Z,16.02
2019-03-11T03:10:47.050Z,16.20
2019-03-11T03:13:15.554Z,12.73
2019-03-11T03:15:44.042Z,12.70
2019-03-11T03:18:12.484Z,14.33
2019-03-11T03:20:41.832Z,17.70
2019-03-11T03:23:10.267Z,17.48
2019-03-11T03:25:38.708Z,13.88
2019-03-11T03:28:07.258Z,12.82
2019-03-11T03:30:35.948Z,13.10
2019-03-11T03:33:04.493Z,17.00
2019-03-11T03:35:32.964Z,18.15
2019-03-11T03:38:01.419Z,17.25
2019-03-11T03:40:29.842Z,13.95
2019-03-11T03:42:58.354Z,12.68
2019-03-11T03:45:35.475Z,15.93
2019-03-11T03:48:04.137Z,20.43
2019-03-11T03:50:35.201Z,9.00
2019-03-11T03:53:03.848Z,9.80
2019-03-11T03:55:32.632Z,7.90
2019-03-11T03:58:01.102Z,14.30
2019-03-11T04:00:29.540Z,11.83
2019-03-11T04:02:57.971Z,13.62
2019-03-11T04:05:26.421Z,15.20
2019-03-11T04:07:54.981Z,11.10
2019-03-11T04:10:23.474Z,7.78
2019-03-11T04:12:52.024Z,12.50
2019-03-11T04:15:20.477Z,13.62
2019-03-11T04:17:49.037Z,7.42
2019-03-11T04:20:19.862Z,9.03
2019-03-11T04:22:48.412Z,10.00
2019-03-11T04:25:16.972Z,8.15
2019-03-11T04:27:45.530Z,10.60
2019-03-11T04:30:24.882Z,9.20
2019-03-11T04:32:53.303Z,11.45
2019-03-11T04:35:21.801Z,7.72
2019-03-11T04:37:50.288Z,10.20
2019-03-11T04:40:18.868Z,9.93
2019-03-11T04:42:47.337Z,5.78
2019-03-11T04:45:16.716Z,5.85
2019-03-11T04:47:45.476Z,9.40
2019-03-11T04:50:18.200Z,11.57
2019-03-11T04:52:46.714Z,5.70
2019-03-11T04:55:16.268Z,8.05
2019-03-11T04:57:54.971Z,11.78
2019-03-11T05:00:26.085Z,5.95
2019-03-11T05:02:54.587Z,10.05
2019-03-11T05:05:23.009Z,7.60
2019-03-11T05:07:51.440Z,8.48
2019-03-11T05:10:19.860Z,5.05
2019-03-11T05:12:48.347Z,7.45
2019-03-11T05:15:16.831Z,5.62
2019-03-11T05:17:48.205Z,3.65
2019-03-11T05:20:16.385Z,5.80
2019-03-11T05:22:45.090Z,3.58
2019-03-11T05:25:14.431Z,7.03
2019-03-11T05:27:42.862Z,3.70
2019-03-11T05:30:19.494Z,3.60
2019-03-11T05:32:48.066Z,4.03
2019-03-11T05:35:16.614Z,4.87
2019-03-11T05:37:45.068Z,5.30
2019-03-11T05:40:15.656Z,2.87
2019-03-11T05:42:44.217Z,3.02
2019-03-11T05:45:14.624Z,3.83
2019-03-11T05:47:43.113Z,3.50
2019-03-11T05:50:13.733Z,7.53
2019-03-11T05:52:42.242Z,5.10
2019-03-11T05:55:12.789Z,5.03
2019-03-11T05:57:41.180Z,4.67
2019-03-11T06:00:16.459Z,4.75
2019-03-11T06:02:44.898Z,4.42
2019-03-11T06:05:13.735Z,4.62
2019-03-11T06:07:42.681Z,3.50
2019-03-11T06:10:13.006Z,5.05
2019-03-11T06:12:41.421Z,4.83
2019-03-11T06:15:12.944Z,2.90
2019-03-11T06:17:41.608Z,4.42
2019-03-11T06:20:34.121Z,8.20
2019-03-11T06:23:04.168Z,5.08
2019-03-11T06:25:32.630Z,4.83
2019-03-11T06:28:01.042Z,5.78
2019-03-11T06:30:29.511Z,6.35
2019-03-11T06:32:57.916Z,5.00
2019-03-11T06:35:26.497Z,5.28
2019-03-11T06:37:54.924Z,4.50
2019-03-11T06:40:23.363Z,4.03
2019-03-11T06:42:51.774Z,2.87
2019-03-11T06:45:20.206Z,2.90
2019-03-11T06:47:48.686Z,3.50
2019-03-11T06:50:17.194Z,4.62
2019-03-11T06:52:45.604Z,5.20
2019-03-11T06:55:14.472Z,2.67
2019-03-11T06:57:42.877Z,4.45
2019-03-11T07:00:18.492Z,3.70
2019-03-11T07:02:47.048Z,4.85
2019-03-11T07:05:20.369Z,4.70
2019-03-11T07:07:45.633Z,3.40
2019-03-11T07:10:15.377Z,3.40
2019-03-11T07:12:45.525Z,5.08
2019-03-11T07:15:15.974Z,4.40
2019-03-11T07:17:44.735Z,3.62
2019-03-11T07:20:15.491Z,4.75
2019-03-11T07:22:43.980Z,5.17
2019-03-11T07:25:12.527Z,3.02
2019-03-11T07:27:40.969Z,4.35
2019-03-11T07:30:19.234Z,7.62
2019-03-11T07:32:47.821Z,3.45
2019-03-11T07:35:16.301Z,3.42
2019-03-11T07:37:44.774Z,1.87
2019-03-11T07:40:14.732Z,2.98
2019-03-11T07:42:43.237Z,2.65
2019-03-11T07:45:15.345Z,3.58
2019-03-11T07:47:43.917Z,3.87
2019-03-11T07:50:14.358Z,3.70
2019-03-11T07:52:42.821Z,1.92
2019-03-11T07:55:12.565Z,6.50
2019-03-11T07:57:41.444Z,5.53
2019-03-11T08:00:15.219Z,5.65
2019-03-11T08:02:43.709Z,4.20
2019-03-11T08:05:12.261Z,6.00
2019-03-11T08:07:40.691Z,4.65
2019-03-11T08:10:23.987Z,3.05
2019-03-11T08:12:52.461Z,4.67
2019-03-11T08:15:20.972Z,3.30
2019-03-11T08:17:49.424Z,3.15
2019-03-11T08:20:17.892Z,3.50
2019-03-11T08:22:46.300Z,3.87
2019-03-11T08:25:16.561Z,3.25
2019-03-11T08:27:45.120Z,5.90
2019-03-11T08:30:21.966Z,3.47
2019-03-11T08:32:50.392Z,4.62
2019-03-11T08:35:18.901Z,5.08
2019-03-11T08:37:47.386Z,7.95
2019-03-11T08:40:19.443Z,3.87
2019-03-11T08:42:47.926Z,5.78
2019-03-11T08:45:18.378Z,3.30
2019-03-11T08:47:46.869Z,8.00
2019-03-11T08:50:16.143Z,3.20
2019-03-11T08:52:44.637Z,2.92
2019-03-11T08:55:14.301Z,5.95
2019-03-11T08:57:42.780Z,3.12
2019-03-11T09:00:22.170Z,5.53
2019-03-11T09:02:50.657Z,2.73
2019-03-11T09:05:19.229Z,7.08
2019-03-11T09:07:47.716Z,6.28
2019-03-11T09:10:17.222Z,8.28
2019-03-11T09:12:45.713Z,6.45
2019-03-11T09:15:21.741Z,4.80
2019-03-11T09:17:50.156Z,6.42
2019-03-11T09:20:19.000Z,6.62
2019-03-11T09:22:47.983Z,5.55
2019-03-11T09:25:22.435Z,4.92
2019-03-11T09:27:51.273Z,9.43
2019-03-11T09:30:21.709Z,4.53
2019-03-11T09:32:50.142Z,8.75
2019-03-11T09:35:18.726Z,8.25
2019-03-11T09:37:47.164Z,4.25
2019-03-11T09:40:19.906Z,4.35
2019-03-11T09:45:20.149Z,6.15
2019-03-11T09:47:48.649Z,5.28
2019-03-11T09:50:17.529Z,4.55
2019-03-11T09:52:46.112Z,7.83
2019-03-11T09:55:18.992Z,6.10
2019-03-11T10:00:18.183Z,5.37
2019-03-11T10:02:52.342Z,4.70
2019-03-11T10:05:17.154Z,5.97
2019-03-11T10:07:45.790Z,6.33
2019-03-11T10:10:16.739Z,5.72
2019-03-11T10:12:45.178Z,6.08
2019-03-11T10:15:21.528Z,4.75
2019-03-11T10:17:49.973Z,4.55
2019-03-11T10:20:19.447Z,3.92
2019-03-11T10:22:48.320Z,4.00
2019-03-11T10:25:17.654Z,5.33
2019-03-11T10:27:46.157Z,7.83
2019-03-11T10:30:22.088Z,5.12
2019-03-11T10:32:50.592Z,5.05
2019-03-11T10:35:31.209Z,7.62
2019-03-11T10:37:49.984Z,5.83
2019-03-11T10:40:25.298Z,7.85
2019-03-11T10:42:53.789Z,8.35
2019-03-11T10:45:31.261Z,10.32
2019-03-11T10:47:52.892Z,5.05
2019-03-11T10:50:21.966Z,5.83
2019-03-11T10:52:50.455Z,11.35
2019-03-11T10:55:23.100Z,2.98
2019-03-11T10:57:51.689Z,7.70
2019-03-11T11:00:32.579Z,5.40
2019-03-11T11:03:01.117Z,4.37
2019-03-11T11:05:29.821Z,3.37
2019-03-11T11:07:58.452Z,4.33
2019-03-11T11:10:26.953Z,5.70
2019-03-11T11:12:55.363Z,5.20
2019-03-11T11:15:31.762Z,6.17
2019-03-11T11:18:00.244Z,7.28
2019-03-11T11:20:29.105Z,3.95
2019-03-11T11:22:57.714Z,4.75
2019-03-11T11:25:29.988Z,4.70
2019-03-11T11:27:58.554Z,2.52
2019-03-11T11:30:31.049Z,4.92
2019-03-11T11:32:59.480Z,8.10
2019-03-11T11:35:27.938Z,4.92
2019-03-11T11:37:56.365Z,4.53
2019-03-11T11:40:25.623Z,6.40
2019-03-11T11:42:54.503Z,6.55
2019-03-11T11:45:25.146Z,5.80
2019-03-11T11:47:53.697Z,3.58
2019-03-11T11:50:24.241Z,6.83
2019-03-11T11:52:53.684Z,4.97
2019-03-11T11:55:23.064Z,2.85
2019-03-11T11:57:51.910Z,4.78
2019-03-11T12:00:26.276Z,6.03
2019-03-11T12:02:54.975Z,6.47
2019-03-11T12:05:23.532Z,6.53
2019-03-11T12:07:52.271Z,4.42
2019-03-11T12:10:25.345Z,2.22
2019-03-11T12:15:21.549Z,3.37
2019-03-11T12:17:49.986Z,5.67
2019-03-11T12:20:31.446Z,4.12
2019-03-11T12:23:00.093Z,6.53
2019-03-11T12:25:28.642Z,5.55
2019-03-11T12:27:58.367Z,5.35
2019-03-11T12:30:30.142Z,3.17
2019-03-11T12:32:58.846Z,3.83
2019-03-11T12:35:27.701Z,3.42
2019-03-11T12:37:56.581Z,5.70
2019-03-11T12:40:25.128Z,3.98
2019-03-11T12:42:53.645Z,3.30
2019-03-11T12:45:24.361Z,7.70
2019-03-11T12:47:52.870Z,5.30
2019-03-11T12:50:29.136Z,4.22
2019-03-11T12:52:57.567Z,5.92
2019-03-11T12:55:26.104Z,4.45
2019-03-11T12:57:54.573Z,4.03
2019-03-11T13:00:24.195Z,4.58
2019-03-11T13:02:52.838Z,4.70
2019-03-11T13:05:21.478Z,5.65
2019-03-11T13:07:49.971Z,5.53
2019-03-11T13:10:28.348Z,5.05
2019-03-11T13:12:56.935Z,4.97
2019-03-11T13:15:25.491Z,10.35
2019-03-11T13:17:53.908Z,3.20
2019-03-11T13:20:28.602Z,5.60
2019-03-11T13:22:57.100Z,5.05
2019-03-11T13:25:25.601Z,3.95
2019-03-11T13:27:54.033Z,7.58
2019-03-11T13:30:22.493Z,3.37
2019-03-11T13:32:50.913Z,4.53
2019-03-11T13:35:19.329Z,3.30
2019-03-11T13:37:47.956Z,6.17
2019-03-11T13:40:16.941Z,4.17
2019-03-11T13:42:45.349Z,5.45
2019-03-11T13:45:16.004Z,6.42
2019-03-11T13:47:44.499Z,3.67
2019-03-11T13:50:18.294Z,5.05
2019-03-11T13:52:46.873Z,4.45
2019-03-11T13:55:16.655Z,4.55
2019-03-11T13:57:45.074Z,4.25
2019-03-11T14:00:18.216Z,4.25
2019-03-11T14:02:46.701Z,4.97
2019-03-11T14:05:15.203Z,6.03
2019-03-11T14:07:43.691Z,4.75
2019-03-11T14:10:15.922Z,7.95
2019-03-11T14:12:45.394Z,7.60
2019-03-11T14:15:23.076Z,2.52
2019-03-11T14:17:51.512Z,5.62
2019-03-11T14:20:20.010Z,4.95
2019-03-11T14:22:48.427Z,6.65
2019-03-11T14:25:17.011Z,4.62
2019-03-11T14:27:45.437Z,4.87
2019-03-11T14:30:18.819Z,6.67
2019-03-11T14:32:47.380Z,4.78
2019-03-11T14:35:15.931Z,3.65
2019-03-11T14:37:44.437Z,5.47
2019-03-11T14:40:17.958Z,5.42
2019-03-11T14:42:46.408Z,7.05
2019-03-11T14:45:17.910Z,4.53
2019-03-11T14:47:46.424Z,4.45
2019-03-11T14:50:15.291Z,4.12
2019-03-11T14:52:43.723Z,4.65
2019-03-11T14:55:13.171Z,7.80
2019-03-11T14:57:41.698Z,4.58
2019-03-11T15:00:20.535Z,4.25
2019-03-11T15:02:49.125Z,4.85
2019-03-11T15:05:18.613Z,2.30
2019-03-11T15:07:47.545Z,5.08
2019-03-11T15:10:19.582Z,3.42
2019-03-11T15:12:48.562Z,2.92
2019-03-11T15:15:23.018Z,5.50
2019-03-11T15:17:51.470Z,4.55
2019-03-11T15:20:19.881Z,4.62
2019-03-11T15:22:48.603Z,3.58
2019-03-11T15:25:17.639Z,3.02
2019-03-11T15:27:46.233Z,5.22
2019-03-11T15:30:19.900Z,7.95
2019-03-11T15:32:49.879Z,6.10
2019-03-11T15:35:18.385Z,3.62
2019-03-11T15:37:46.928Z,4.90
2019-03-11T15:40:19.609Z,5.28
2019-03-11T15:42:48.183Z,4.55
2019-03-11T15:45:18.076Z,6.55
2019-03-11T15:47:46.863Z,7.30
2019-03-11T15:50:24.680Z,3.45
2019-03-11T15:52:53.177Z,4.65
2019-03-11T15:55:21.680Z,5.55
2019-03-11T15:57:50.093Z,3.90
2019-03-11T16:00:20.636Z,4.95
2019-03-11T16:02:49.120Z,6.78
2019-03-11T16:05:19.499Z,3.08
2019-03-11T16:07:48.352Z,3.72
2019-03-11T16:10:17.537Z,4.70
2019-03-11T16:12:46.234Z,3.83
2019-03-11T16:15:16.320Z,3.20
2019-03-11T16:17:44.930Z,5.60
2019-03-11T16:20:20.389Z,3.37
2019-03-11T16:22:49.038Z,4.10
2019-03-11T16:25:17.551Z,5.62
2019-03-11T16:27:47.652Z,3.42
2019-03-11T16:30:20.881Z,3.70
2019-03-11T16:32:59.491Z,6.50
2019-03-11T16:35:20.920Z,7.60
2019-03-11T16:37:49.364Z,4.17
2019-03-11T16:40:17.876Z,6.33
2019-03-11T16:42:46.377Z,3.60
2019-03-11T16:45:17.892Z,3.45
2019-03-11T16:47:47.447Z,6.47
2019-03-11T16:50:26.431Z,2.85
2019-03-11T16:52:54.893Z,3.98
2019-03-11T16:55:31.592Z,5.42
2019-03-11T16:58:00.058Z,3.83
2019-03-11T17:00:32.890Z,5.55
2019-03-11T17:05:29.052Z,5.05
2019-03-11T17:07:57.534Z,3.00
2019-03-11T17:10:26.030Z,2.10
2019-03-11T17:12:54.593Z,3.42
2019-03-11T17:15:23.083Z,6.22
2019-03-11T17:17:51.615Z,4.50
2019-03-11T17:20:20.531Z,5.22
2019-03-11T17:22:48.967Z,9.93
2019-03-11T17:25:17.548Z,5.60
2019-03-11T17:27:46.057Z,3.85
2019-03-11T17:30:16.899Z,3.00
2019-03-11T17:32:45.406Z,3.10
2019-03-11T17:35:14.685Z,3.50
2019-03-11T17:37:43.272Z,4.25
2019-03-11T17:40:19.668Z,7.03
2019-03-11T17:42:48.260Z,10.20
2019-03-11T17:45:16.885Z,5.28
2019-03-11T17:47:45.520Z,4.67
2019-03-11T17:50:16.681Z,3.08
2019-03-11T17:52:45.394Z,5.60
2019-03-11T17:55:14.739Z,2.37
2019-03-11T17:57:43.335Z,10.72
2019-03-11T18:00:25.685Z,7.62
2019-03-11T18:02:54.960Z,4.17
2019-03-11T18:05:23.556Z,3.90
2019-03-11T18:07:52.072Z,5.35
2019-03-11T18:10:20.579Z,8.30
2019-03-11T18:12:49.020Z,5.25
2019-03-11T18:15:17.584Z,3.62
2019-03-11T18:17:46.057Z,4.30
2019-03-11T18:20:16.813Z,3.67
2019-03-11T18:22:45.500Z,5.87
2019-03-11T18:25:16.545Z,10.32
2019-03-11T18:27:45.040Z,6.40
2019-03-11T18:30:16.489Z,6.87
2019-03-11T18:32:45.112Z,5.05
2019-03-11T18:35:13.776Z,6.50
2019-03-11T18:37:42.333Z,4.15
2019-03-11T18:40:13.641Z,4.70
2019-03-11T18:42:42.110Z,5.40
2019-03-11T18:45:12.521Z,5.00
2019-03-11T18:47:41.088Z,5.17
2019-03-11T18:50:14.914Z,5.33
2019-03-11T18:52:43.523Z,4.12
2019-03-11T18:55:12.137Z,3.83
2019-03-11T18:57:40.676Z,5.97
2019-03-11T19:00:15.203Z,4.60
2019-03-11T19:02:43.849Z,5.33
2019-03-11T19:05:20.429Z,5.70
2019-03-11T19:07:49.028Z,6.78
2019-03-11T19:10:17.873Z,8.28
2019-03-11T19:12:46.408Z,6.20
2019-03-11T19:15:25.200Z,4.80
2019-03-11T19:17:53.852Z,3.15
2019-03-11T19:20:23.690Z,5.20
2019-03-11T19:22:52.423Z,4.55
2019-03-11T19:25:21.175Z,6.28
2019-03-11T19:27:49.775Z,3.72
2019-03-11T19:30:20.124Z,5.83
2019-03-11T19:32:48.611Z,4.20
2019-03-11T19:35:18.002Z,5.20
2019-03-11T19:37:46.850Z,4.65
2019-03-11T19:40:20.376Z,3.87
2019-03-11T19:42:48.950Z,2.70
2019-03-11T19:45:17.573Z,7.08
2019-03-11T19:47:46.161Z,4.42
2019-03-11T19:50:16.111Z,5.50
2019-03-11T19:52:57.243Z,5.15
2019-03-11T19:55:14.836Z,5.50
2019-03-11T19:57:43.343Z,3.17
2019-03-11T20:00:24.819Z,3.42
2019-03-11T20:02:53.445Z,7.22
2019-03-11T20:05:27.681Z,5.55
2019-03-11T20:07:56.240Z,3.33
2019-03-11T20:10:24.925Z,6.15
2019-03-11T20:12:53.511Z,5.33
2019-03-11T20:15:22.086Z,4.60
2019-03-11T20:17:50.614Z,6.25
2019-03-11T20:20:19.979Z,3.77
2019-03-11T20:22:50.140Z,5.92
2019-03-11T20:25:27.252Z,5.50
2019-03-11T20:27:55.775Z,4.67
2019-03-11T20:30:24.544Z,7.03
2019-03-11T20:32:53.131Z,6.17
2019-03-11T20:35:21.717Z,3.70
2019-03-11T20:37:50.214Z,6.03
2019-03-11T20:40:18.870Z,2.52
2019-03-11T20:42:47.444Z,2.42
2019-03-11T20:45:20.003Z,4.12
2019-03-11T20:47:48.665Z,4.22
2019-03-11T20:50:18.156Z,5.00
2019-03-11T20:52:46.690Z,5.62
2019-03-11T20:55:19.924Z,5.65
2019-03-11T20:57:48.506Z,5.05
2019-03-11T21:00:26.872Z,3.08
2019-03-11T21:02:55.537Z,4.53
2019-03-11T21:05:41.396Z,5.25
2019-03-11T21:08:09.943Z,2.40
2019-03-11T21:10:38.574Z,4.87
2019-03-11T21:13:07.358Z,6.08
2019-03-11T21:15:35.865Z,4.60
2019-03-11T21:18:04.457Z,4.10
2019-03-11T21:20:33.094Z,4.78
2019-03-11T21:23:01.556Z,5.78
2019-03-11T21:25:30.048Z,3.75
2019-03-11T21:27:58.629Z,6.15
2019-03-11T21:30:27.303Z,4.22
2019-03-11T21:32:55.893Z,4.03
2019-03-11T21:35:24.519Z,3.45
2019-03-11T21:37:53.153Z,5.15
2019-03-11T21:40:22.734Z,5.95
2019-03-11T21:42:51.798Z,6.40
2019-03-11T21:45:33.010Z,5.22
2019-03-11T21:47:51.126Z,6.33
2019-03-11T21:50:23.988Z,8.58
2019-03-11T21:52:52.559Z,3.35
2019-03-11T21:55:21.127Z,5.72
2019-03-11T21:57:49.782Z,7.92
2019-03-11T22:00:32.997Z,7.50
2019-03-11T22:02:51.929Z,5.42
2019-03-11T22:05:20.677Z,7.87
2019-03-11T22:07:49.185Z,7.28
2019-03-11T22:10:18.453Z,5.97
2019-03-11T22:12:46.969Z,4.90
2019-03-11T22:15:23.400Z,4.50
2019-03-11T22:17:51.910Z,8.00
2019-03-11T22:20:20.320Z,5.12
2019-03-11T22:22:48.789Z,4.10
2019-03-11T22:25:18.447Z,5.05
2019-03-11T22:27:46.936Z,6.05
2019-03-11T22:30:20.220Z,7.72
2019-03-11T22:32:48.813Z,6.85
2019-03-11T22:35:17.532Z,8.93
2019-03-11T22:37:46.000Z,8.48
2019-03-11T22:40:16.100Z,4.62
2019-03-11T22:42:44.948Z,5.28
2019-03-11T22:45:17.550Z,4.75
2019-03-11T22:47:46.053Z,8.58
2019-03-11T22:50:17.633Z,7.47
2019-03-11T22:52:44.800Z,3.95
2019-03-11T22:55:13.660Z,2.60
2019-03-11T22:57:42.084Z,6.45
2019-03-11T23:00:35.200Z,7.22
2019-03-11T23:03:06.561Z,4.45
2019-03-11T23:05:33.915Z,7.15
2019-03-11T23:08:02.324Z,4.65
2019-03-11T23:10:30.758Z,6.87
2019-03-11T23:12:59.169Z,6.97
2019-03-11T23:15:27.618Z,7.62
2019-03-11T23:17:56.042Z,10.63
2019-03-11T23:20:24.490Z,4.20
2019-03-11T23:22:52.901Z,3.92
2019-03-11T23:25:21.353Z,5.58
2019-03-11T23:27:49.782Z,6.45
2019-03-11T23:30:18.437Z,9.10
2019-03-11T23:32:46.868Z,6.75
2019-03-11T23:35:15.311Z,5.78
2019-03-11T23:37:43.755Z,6.20
2019-03-11T23:40:12.386Z,5.05
2019-03-11T23:42:40.792Z,8.20
2019-03-11T23:45:10.866Z,5.55
2019-03-11T23:47:39.293Z,5.83
2019-03-11T23:50:12.041Z,5.72
2019-03-11T23:55:09.736Z,8.03
2019-03-11T23:57:38.177Z,5.95
